sensor_id;sensor_type;location;lat;lon;timestamp;P1;P2;P0
55857;PMS7003;41779;52.360;31.026;2022-09-01T00:03:22;4;3.6;3
55857;PMS7003;41779;52.360;31.026;2022-09-01T00:08:06;4.6;3.6;3
55857;PMS7003;41779;52.360;31.026;2022-09-01T00:13:47;3.8;2.8;2.4
55857;PMS7003;41779;52.360;31.026;2022-09-01T00:18:45;4;2.8;2.6
55857;PMS7003;41779;52.360;31.026;2022-09-01T00:23:15;4.2;2.8;2.6
55857;PMS7003;41779;52.360;31.026;2022-09-01T00:28:45;4.8;3.4;2.6
55857;PMS7003;41779;52.360;31.026;2022-09-01T00:33:20;3.3;3;2.3
55857;PMS7003;41779;52.360;31.026;2022-09-01T00:38:37;2.8;2.4;2
55857;PMS7003;41779;52.360;31.026;2022-09-01T00:43:36;3.4;3;2.2
55857;PMS7003;41779;52.360;31.026;2022-09-01T00:48:22;3.4;2.8;2.4
55857;PMS7003;41779;52.360;31.026;2022-09-01T00:53:37;4.8;2.8;2.6
55857;PMS7003;41779;52.360;31.026;2022-09-01T00:58:45;3.6;2.6;2.2
55857;PMS7003;41779;52.360;31.026;2022-09-01T01:03:35;3.6;2.8;2
55857;PMS7003;41779;52.360;31.026;2022-09-01T01:08:47;3.6;2.6;2.4
55857;PMS7003;41779;52.360;31.026;2022-09-01T01:13:16;4.2;3;2.4
55857;PMS7003;41779;52.360;31.026;2022-09-01T01:18:06;4.4;3;2.6
55857;PMS7003;41779;52.360;31.026;2022-09-01T01:23:43;3.6;2.6;2.4
55857;PMS7003;41779;52.360;31.026;2022-09-01T01:28:36;3.2;2.8;2.8
55857;PMS7003;41779;52.360;31.026;2022-09-01T01:33:49;3.8;2.8;2.5
55857;PMS7003;41779;52.360;31.026;2022-09-01T01:38:23;3.8;3.6;2.8
55857;PMS7003;41779;52.360;31.026;2022-09-01T01:43:35;4.4;3;2.8
55857;PMS7003;41779;52.360;31.026;2022-09-01T01:48:44;4;2.6;2.2
55857;PMS7003;41779;52.360;31.026;2022-09-01T01:53:27;4.4;2.8;2.4
55857;PMS7003;41779;52.360;31.026;2022-09-01T01:58:29;4.6;3.6;2.8
55857;PMS7003;41779;52.360;31.026;2022-09-01T02:03:07;3.6;2.4;2.4
55857;PMS7003;41779;52.360;31.026;2022-09-01T02:08:08;4.8;2.2;2
55857;PMS7003;41779;52.360;31.026;2022-09-01T02:13:15;3.2;2.8;2.4
55857;PMS7003;41779;52.360;31.026;2022-09-01T02:18:38;3.2;2.6;2
55857;PMS7003;41779;52.360;31.026;2022-09-01T02:23:50;5;3.6;3
55857;PMS7003;41779;52.360;31.026;2022-09-01T02:28:48;3.4;2.6;2.4
55857;PMS7003;41779;52.360;31.026;2022-09-01T02:33:23;6;4;2.5
55857;PMS7003;41779;52.360;31.026;2022-09-01T02:38:15;4.4;3.8;3
55857;PMS7003;41779;52.360;31.026;2022-09-01T02:43:47;3.2;2.4;2
55857;PMS7003;41779;52.360;31.026;2022-09-01T02:48:47;5.6;3.4;2.8
55857;PMS7003;41779;52.360;31.026;2022-09-01T02:53:07;3.6;2.6;2
55857;PMS7003;41779;52.360;31.026;2022-09-01T02:58:07;4.6;3.6;3.2
55857;PMS7003;41779;52.360;31.026;2022-09-01T03:03:13;3.5;3;2
55857;PMS7003;41779;52.360;31.026;2022-09-01T03:08:37;5;3.2;2.6
55857;PMS7003;41779;52.360;31.026;2022-09-01T03:13:27;2.8;2.6;2.4
55857;PMS7003;41779;52.360;31.026;2022-09-01T03:18:35;3.4;3.4;2.8
55857;PMS7003;41779;52.360;31.026;2022-09-01T03:23:25;4.6;3.2;2.6
55857;PMS7003;41779;52.360;31.026;2022-09-01T03:28:49;4.8;3.4;2.6
55857;PMS7003;41779;52.360;31.026;2022-09-01T03:33:35;5;4.4;2.8
55857;PMS7003;41779;52.360;31.026;2022-09-01T03:38:45;6.6;4.2;3
55857;PMS7003;41779;52.360;31.026;2022-09-01T03:43:29;7.4;4.8;4
55857;PMS7003;41779;52.360;31.026;2022-09-01T03:48:07;7.4;6.2;4.8
55857;PMS7003;41779;52.360;31.026;2022-09-01T03:53:07;9.4;5.6;4.2
55857;PMS7003;41779;52.360;31.026;2022-09-01T03:58:47;4.6;3.8;3.2
55857;PMS7003;41779;52.360;31.026;2022-09-01T04:03:47;4.6;3.8;3
55857;PMS7003;41779;52.360;31.026;2022-09-01T04:08:47;7;4;3.8
55857;PMS7003;41779;52.360;31.026;2022-09-01T04:13:49;7.8;5.6;4.8
55857;PMS7003;41779;52.360;31.026;2022-09-01T04:18:35;13.6;9.4;7.2
55857;PMS7003;41779;52.360;31.026;2022-09-01T04:23:29;13;9.8;7.8
55857;PMS7003;41779;52.360;31.026;2022-09-01T04:28:07;12.8;8.6;6.8
55857;PMS7003;41779;52.360;31.026;2022-09-01T04:33:39;11.8;8.8;6
55857;PMS7003;41779;52.360;31.026;2022-09-01T04:38:15;11.4;7.4;5.4
55857;PMS7003;41779;52.360;31.026;2022-09-01T04:43:17;10;8;5.4
55857;PMS7003;41779;52.360;31.026;2022-09-01T04:48:17;11.2;9.2;7.2
55857;PMS7003;41779;52.360;31.026;2022-09-01T04:53:49;15;11.6;9
55857;PMS7003;41779;52.360;31.026;2022-09-01T04:58:49;8.2;6.4;5.4
55857;PMS7003;41779;52.360;31.026;2022-09-01T05:03:15;10.6;9;7.2
55857;PMS7003;41779;52.360;31.026;2022-09-01T05:08:08;9;7.5;5.5
55857;PMS7003;41779;52.360;31.026;2022-09-01T05:13:35;8.8;6.4;5.4
55857;PMS7003;41779;52.360;31.026;2022-09-01T05:18:47;7.4;5.8;4.6
55857;PMS7003;41779;52.360;31.026;2022-09-01T05:23:18;8.6;5.6;4.8
55857;PMS7003;41779;52.360;31.026;2022-09-01T05:28:15;7.8;6.2;4.8
55857;PMS7003;41779;52.360;31.026;2022-09-01T05:33:13;8.4;5.4;4.4
55857;PMS7003;41779;52.360;31.026;2022-09-01T05:38:37;8.4;5.8;4.8
55857;PMS7003;41779;52.360;31.026;2022-09-01T05:43:17;11;7;5
55857;PMS7003;41779;52.360;31.026;2022-09-01T05:48:25;8.4;7;4.8
55857;PMS7003;41779;52.360;31.026;2022-09-01T05:53:37;9.2;7.6;6
55857;PMS7003;41779;52.360;31.026;2022-09-01T05:58:35;8.6;7.2;5.8
55857;PMS7003;41779;52.360;31.026;2022-09-01T06:03:35;7.2;5.2;4.4
55857;PMS7003;41779;52.360;31.026;2022-09-01T06:08:49;4.5;3.8;3
55857;PMS7003;41779;52.360;31.026;2022-09-01T06:13:37;4.8;4;3.4
55857;PMS7003;41779;52.360;31.026;2022-09-01T06:18:15;4.4;4;3.6
55857;PMS7003;41779;52.360;31.026;2022-09-01T06:23:25;3.6;3.6;2.8
55857;PMS7003;41779;52.360;31.026;2022-09-01T06:28:47;5.4;4;3.4
55857;PMS7003;41779;52.360;31.026;2022-09-01T06:33:45;5.2;3.6;2.8
55857;PMS7003;41779;52.360;31.026;2022-09-01T06:38:19;4;2.8;2.6
55857;PMS7003;41779;52.360;31.026;2022-09-01T06:43:47;3.6;3.2;2.8
55857;PMS7003;41779;52.360;31.026;2022-09-01T06:48:47;4.6;3.6;3
55857;PMS7003;41779;52.360;31.026;2022-09-01T06:53:08;3;2.8;2.6
55857;PMS7003;41779;52.360;31.026;2022-09-01T06:58:27;3.8;2.6;2.6
55857;PMS7003;41779;52.360;31.026;2022-09-01T07:03:35;4;2.6;2.6
55857;PMS7003;41779;52.360;31.026;2022-09-01T07:08:17;3.8;3;2.3
55857;PMS7003;41779;52.360;31.026;2022-09-01T07:13:18;4.2;3.6;3.2
55857;PMS7003;41779;52.360;31.026;2022-09-01T07:18:29;4.6;4;2.8
55857;PMS7003;41779;52.360;31.026;2022-09-01T07:23:49;5.2;3.6;3.2
55857;PMS7003;41779;52.360;31.026;2022-09-01T07:28:47;3.4;2.2;1.8
55857;PMS7003;41779;52.360;31.026;2022-09-01T07:33:23;2.8;1.4;1
55857;PMS7003;41779;52.360;31.026;2022-09-01T07:38:25;2.2;1.6;1
55857;PMS7003;41779;52.360;31.026;2022-09-01T07:43:37;1.2;0.2;0.2
55857;PMS7003;41779;52.360;31.026;2022-09-01T07:48:52;1.4;0.6;0.6
55857;PMS7003;41779;52.360;31.026;2022-09-01T07:53:20;0.8;0.6;0.4
55857;PMS7003;41779;52.360;31.026;2022-09-01T07:58:07;0.2;0.2;0
55857;PMS7003;41779;52.360;31.026;2022-09-01T08:03:07;0.4;0;0
55857;PMS7003;41779;52.360;31.026;2022-09-01T08:08:17;1.3;0.8;0.3
55857;PMS7003;41779;52.360;31.026;2022-09-01T08:13:41;1.8;0.8;0.6
55857;PMS7003;41779;52.360;31.026;2022-09-01T08:18:27;0.4;0.2;0.2
55857;PMS7003;41779;52.360;31.026;2022-09-01T08:23:37;0.4;0.2;0.2
55857;PMS7003;41779;52.360;31.026;2022-09-01T08:28:37;1.2;0.4;0.2
55857;PMS7003;41779;52.360;31.026;2022-09-01T08:33:47;1.2;0.8;0.4
55857;PMS7003;41779;52.360;31.026;2022-09-01T08:38:41;1;0.6;0.4
55857;PMS7003;41779;52.360;31.026;2022-09-01T08:44:00;2;0.8;0.4
55857;PMS7003;41779;52.360;31.026;2022-09-01T08:48:35;1.4;0.6;0.2
55857;PMS7003;41779;52.360;31.026;2022-09-01T08:53:08;1;0.6;0.2
55857;PMS7003;41779;52.360;31.026;2022-09-01T08:58:17;0.6;0.2;0.2
55857;PMS7003;41779;52.360;31.026;2022-09-01T09:03:47;1;0.2;0.2
55857;PMS7003;41779;52.360;31.026;2022-09-01T09:08:57;0.4;0.2;0.2
55857;PMS7003;41779;52.360;31.026;2022-09-01T09:18:47;2.4;1.2;1
55857;PMS7003;41779;52.360;31.026;2022-09-01T09:23:38;3.8;2.6;2
55857;PMS7003;41779;52.360;31.026;2022-09-01T09:28:29;4.8;3.6;3.2
55857;PMS7003;41779;52.360;31.026;2022-09-01T09:33:33;4.8;3.4;2.6
55857;PMS7003;41779;52.360;31.026;2022-09-01T09:38:20;4;3;2.4
55857;PMS7003;41779;52.360;31.026;2022-09-01T09:43:07;3.5;1.8;1.5
55857;PMS7003;41779;52.360;31.026;2022-09-01T09:48:09;3.2;1.6;1.4
55857;PMS7003;41779;52.360;31.026;2022-09-01T09:53:30;3.2;2;1.4
55857;PMS7003;41779;52.360;31.026;2022-09-01T09:58:51;2.8;1.8;1.6
55857;PMS7003;41779;52.360;31.026;2022-09-01T10:03:50;2.2;1.8;1.4
55857;PMS7003;41779;52.360;31.026;2022-09-01T10:08:08;2.2;1.6;1.4
55857;PMS7003;41779;52.360;31.026;2022-09-01T10:13:16;2.3;2;1.7
55857;PMS7003;41779;52.360;31.026;2022-09-01T10:18:49;2;1;0.8
55857;PMS7003;41779;52.360;31.026;2022-09-01T10:23:49;1.4;1;1
55857;PMS7003;41779;52.360;31.026;2022-09-01T10:28:27;1.4;0.8;0.8
55857;PMS7003;41779;52.360;31.026;2022-09-01T10:33:17;1.2;1.2;0.8
55857;PMS7003;41779;52.360;31.026;2022-09-01T10:38:22;3;0.8;0.8
55857;PMS7003;41779;52.360;31.026;2022-09-01T10:43:28;2.3;1.3;1.3
55857;PMS7003;41779;52.360;31.026;2022-09-01T10:48:25;1.4;1.2;1
55857;PMS7003;41779;52.360;31.026;2022-09-01T10:53:40;3;2.2;1.6
55857;PMS7003;41779;52.360;31.026;2022-09-01T10:58:32;1.6;1;0.8
55857;PMS7003;41779;52.360;31.026;2022-09-01T11:03:48;2.2;0.8;0.8
55857;PMS7003;41779;52.360;31.026;2022-09-01T11:08:44;1;0.8;0.8
55857;PMS7003;41779;52.360;31.026;2022-09-01T11:13:51;0.6;0.6;0.6
55857;PMS7003;41779;52.360;31.026;2022-09-01T11:18:27;1.2;0.6;0.6
55857;PMS7003;41779;52.360;31.026;2022-09-01T11:23:29;1.8;1;0.5
55857;PMS7003;41779;52.360;31.026;2022-09-01T11:28:48;3;1.6;1.4
55857;PMS7003;41779;52.360;31.026;2022-09-01T11:33:41;0.8;0.8;0.8
55857;PMS7003;41779;52.360;31.026;2022-09-01T11:39:54;1.6;1;0.8
55857;PMS7003;41779;52.360;31.026;2022-09-01T11:43:35;2.4;1.6;1
55857;PMS7003;41779;52.360;31.026;2022-09-01T11:48:39;1.4;1.4;1
55857;PMS7003;41779;52.360;31.026;2022-09-01T11:53:37;1.6;1.2;1
55857;PMS7003;41779;52.360;31.026;2022-09-01T11:58:32;2.2;1.2;1
55857;PMS7003;41779;52.360;31.026;2022-09-01T12:03:31;1.6;1.2;1.2
55857;PMS7003;41779;52.360;31.026;2022-09-01T12:08:19;2.4;1.4;1.2
55857;PMS7003;41779;52.360;31.026;2022-09-01T12:13:29;2.8;1.8;1.6
55857;PMS7003;41779;52.360;31.026;2022-09-01T12:18:23;2.4;1.8;1
55857;PMS7003;41779;52.360;31.026;2022-09-01T12:23:30;1.6;0.4;0.4
55857;PMS7003;41779;52.360;31.026;2022-09-01T12:28:55;1.8;1;0.5
55857;PMS7003;41779;52.360;31.026;2022-09-01T12:33:52;2.2;1.2;1.2
55857;PMS7003;41779;52.360;31.026;2022-09-01T12:38:25;2;1.4;1.2
55857;PMS7003;41779;52.360;31.026;2022-09-01T12:43:37;1.6;1.2;1.2
55857;PMS7003;41779;52.360;31.026;2022-09-01T12:48:43;1.6;0.6;0.6
55857;PMS7003;41779;52.360;31.026;2022-09-01T12:53:53;2.2;1.8;1.4
55857;PMS7003;41779;52.360;31.026;2022-09-01T12:58:33;2.2;1.2;1.2
55857;PMS7003;41779;52.360;31.026;2022-09-01T13:03:17;1.2;1.2;1
55857;PMS7003;41779;52.360;31.026;2022-09-01T13:08:13;2.2;1.4;1.2
55857;PMS7003;41779;52.360;31.026;2022-09-01T13:13:09;1.4;1;0.8
55857;PMS7003;41779;52.360;31.026;2022-09-01T13:18:18;2.4;1.8;1.4
55857;PMS7003;41779;52.360;31.026;2022-09-01T13:23:31;2;1.2;0.8
55857;PMS7003;41779;52.360;31.026;2022-09-01T13:28:41;2;1.8;1.3
55857;PMS7003;41779;52.360;31.026;2022-09-01T13:33:37;1.6;1;0.8
55857;PMS7003;41779;52.360;31.026;2022-09-01T13:38:43;2;1.6;1.2
55857;PMS7003;41779;52.360;31.026;2022-09-01T13:43:53;2.8;2.2;2
55857;PMS7003;41779;52.360;31.026;2022-09-01T13:48:41;5.8;4.8;3.6
55857;PMS7003;41779;52.360;31.026;2022-09-01T13:53:07;4.2;3;2.4
55857;PMS7003;41779;52.360;31.026;2022-09-01T13:58:17;2;1.2;1.2
55857;PMS7003;41779;52.360;31.026;2022-09-01T14:03:49;3.8;2.4;2.4
55857;PMS7003;41779;52.360;31.026;2022-09-01T14:08:41;2.6;1.8;1.4
55857;PMS7003;41779;52.360;31.026;2022-09-01T14:13:41;1.6;1.2;1.2
55857;PMS7003;41779;52.360;31.026;2022-09-01T14:18:53;3.2;1.6;1.4
55857;PMS7003;41779;52.360;31.026;2022-09-01T14:23:39;2.6;1.6;1.6
55857;PMS7003;41779;52.360;31.026;2022-09-01T14:28:18;2;1.3;1.3
55857;PMS7003;41779;52.360;31.026;2022-09-01T14:33:27;2.2;2.2;1.8
55857;PMS7003;41779;52.360;31.026;2022-09-01T14:38:39;1.4;0.6;0.4
55857;PMS7003;41779;52.360;31.026;2022-09-01T14:43:08;2;1.6;1.2
55857;PMS7003;41779;52.360;31.026;2022-09-01T14:48:07;2.2;1.4;1.2
55857;PMS7003;41779;52.360;31.026;2022-09-01T14:53:07;1.6;1.2;1.2
55857;PMS7003;41779;52.360;31.026;2022-09-01T14:58:53;1.4;0.8;0.8
55857;PMS7003;41779;52.360;31.026;2022-09-01T15:03:49;2.4;1.8;1.4
55857;PMS7003;41779;52.360;31.026;2022-09-01T15:08:27;2.4;1.4;1.2
55857;PMS7003;41779;52.360;31.026;2022-09-01T15:13:39;1.4;0.8;0.6
55857;PMS7003;41779;52.360;31.026;2022-09-01T15:18:41;1.2;0.4;0.4
55857;PMS7003;41779;52.360;31.026;2022-09-01T15:23:51;3.2;1.4;1.4
55857;PMS7003;41779;52.360;31.026;2022-09-01T15:28:27;1.8;1.3;1.3
55857;PMS7003;41779;52.360;31.026;2022-09-01T15:33:13;1.8;1.4;0.8
55857;PMS7003;41779;52.360;31.026;2022-09-01T15:38:05;2.4;1;0.8
55857;PMS7003;41779;52.360;31.026;2022-09-01T15:43:26;1.8;1.2;1.2
55857;PMS7003;41779;52.360;31.026;2022-09-01T15:48:37;1.6;1.6;1
55857;PMS7003;41779;52.360;31.026;2022-09-01T15:53:07;4.2;2.4;1.8
55857;PMS7003;41779;52.360;31.026;2022-09-01T15:58:41;3;1.6;1.4
55857;PMS7003;41779;52.360;31.026;2022-09-01T16:03:35;2.2;1.8;1.6
55857;PMS7003;41779;52.360;31.026;2022-09-01T16:08:49;1.4;1.2;1.2
55857;PMS7003;41779;52.360;31.026;2022-09-01T16:13:49;2;1.4;1
55857;PMS7003;41779;52.360;31.026;2022-09-01T16:18:38;2.4;1.2;1
55857;PMS7003;41779;52.360;31.026;2022-09-01T16:23:20;4.4;2.8;2.6
55857;PMS7003;41779;52.360;31.026;2022-09-01T16:28:11;3.5;2.3;2
55857;PMS7003;41779;52.360;31.026;2022-09-01T16:33:50;17.4;12.4;9
55857;PMS7003;41779;52.360;31.026;2022-09-01T16:38:52;10.8;9;6.2
55857;PMS7003;41779;52.360;31.026;2022-09-01T16:43:52;6.6;5.2;4.4
55857;PMS7003;41779;52.360;31.026;2022-09-01T16:53:58;3.6;2.6;2.4
55857;PMS7003;41779;52.360;31.026;2022-09-01T16:58:42;6.2;4.8;4
55857;PMS7003;41779;52.360;31.026;2022-09-01T17:03:20;3.4;2.4;2.2
55857;PMS7003;41779;52.360;31.026;2022-09-01T17:08:30;2.6;2.4;2.2
55857;PMS7003;41779;52.360;31.026;2022-09-01T17:13:11;2.4;2.2;2.2
55857;PMS7003;41779;52.360;31.026;2022-09-01T17:18:53;4.4;3;2.4
55857;PMS7003;41779;52.360;31.026;2022-09-01T17:23:21;17.8;11.8;7.8
55857;PMS7003;41779;52.360;31.026;2022-09-01T17:28:42;16.8;11.8;8.3
55857;PMS7003;41779;52.360;31.026;2022-09-01T17:33:53;23.4;17;11
55857;PMS7003;41779;52.360;31.026;2022-09-01T17:38:57;31.4;23.2;13.8
55857;PMS7003;41779;52.360;31.026;2022-09-01T17:43:37;16.4;11.2;7.4
55857;PMS7003;41779;52.360;31.026;2022-09-01T17:48:11;16.4;10.8;7.8
55857;PMS7003;41779;52.360;31.026;2022-09-01T17:53:55;18;12.2;8.6
55857;PMS7003;41779;52.360;31.026;2022-09-01T17:58:54;16.6;12.2;8.6
55857;PMS7003;41779;52.360;31.026;2022-09-01T18:08:19;24.8;19.8;14
55857;PMS7003;41779;52.360;31.026;2022-09-01T18:13:21;33;24.2;15.8
55857;PMS7003;41779;52.360;31.026;2022-09-01T18:18:40;50.6;33.4;19.2
55857;PMS7003;41779;52.360;31.026;2022-09-01T18:23:27;48.4;33.6;19.4
55857;PMS7003;41779;52.360;31.026;2022-09-01T18:28:37;25.8;18.2;12
55857;PMS7003;41779;52.360;31.026;2022-09-01T18:33:59;13.8;10;7.3
55857;PMS7003;41779;52.360;31.026;2022-09-01T18:39:02;12.3;7.8;6
55857;PMS7003;41779;52.360;31.026;2022-09-01T18:43:43;8.6;5.6;4
55857;PMS7003;41779;52.360;31.026;2022-09-01T18:53:09;24.6;18.8;13.2
55857;PMS7003;41779;52.360;31.026;2022-09-01T18:58:26;30.8;25.3;18.3
55857;PMS7003;41779;52.360;31.026;2022-09-01T19:03:09;25.4;21.2;15.2
55857;PMS7003;41779;52.360;31.026;2022-09-01T19:08:42;17.2;14.6;11.8
55857;PMS7003;41779;52.360;31.026;2022-09-01T19:13:58;12.8;9.4;6.4
55857;PMS7003;41779;52.360;31.026;2022-09-01T19:18:22;9.3;7.3;5.8
55857;PMS7003;41779;52.360;31.026;2022-09-01T19:23:44;8.6;6.8;5.4
55857;PMS7003;41779;52.360;31.026;2022-09-01T19:28:43;9.6;6;4.6
55857;PMS7003;41779;52.360;31.026;2022-09-01T19:33:28;10.2;6.4;4.8
55857;PMS7003;41779;52.360;31.026;2022-09-01T19:38:19;9.6;6.2;5
55857;PMS7003;41779;52.360;31.026;2022-09-01T19:43:17;9.4;7.2;4.8
55857;PMS7003;41779;52.360;31.026;2022-09-01T19:48:51;9;5.8;4.4
55857;PMS7003;41779;52.360;31.026;2022-09-01T19:58:34;7;5.6;4
55857;PMS7003;41779;52.360;31.026;2022-09-01T20:03:50;7.2;5;4
55857;PMS7003;41779;52.360;31.026;2022-09-01T20:09:02;6;3.8;3.4
55857;PMS7003;41779;52.360;31.026;2022-09-01T20:13:46;6.8;4.6;3.2
55857;PMS7003;41779;52.360;31.026;2022-09-01T20:18:30;5.8;4.6;4
55857;PMS7003;41779;52.360;31.026;2022-09-01T20:23:56;5.4;4.6;4.2
55857;PMS7003;41779;52.360;31.026;2022-09-01T20:28:53;7.8;5.4;4.2
55857;PMS7003;41779;52.360;31.026;2022-09-01T20:33:18;6.8;5.8;4
55857;PMS7003;41779;52.360;31.026;2022-09-01T20:38:26;5.2;4.8;4.4
55857;PMS7003;41779;52.360;31.026;2022-09-01T20:43:18;6.4;4.6;3.8
55857;PMS7003;41779;52.360;31.026;2022-09-01T20:48:41;7.2;5.4;4.4
55857;PMS7003;41779;52.360;31.026;2022-09-01T20:53:16;6.8;5.8;4.6
55857;PMS7003;41779;52.360;31.026;2022-09-01T20:58:20;6;3.8;3.2
55857;PMS7003;41779;52.360;31.026;2022-09-01T21:03:40;5.4;4.8;3.4
55857;PMS7003;41779;52.360;31.026;2022-09-01T21:08:58;7.8;5;3.8
55857;PMS7003;41779;52.360;31.026;2022-09-01T21:15:08;6.5;4.3;3
55857;PMS7003;41779;52.360;31.026;2022-09-01T21:19:00;6;4;3.6
55857;PMS7003;41779;52.360;31.026;2022-09-01T21:23:40;6.4;5;4.2
55857;PMS7003;41779;52.360;31.026;2022-09-01T21:28:07;6;4.6;3.8
55857;PMS7003;41779;52.360;31.026;2022-09-01T21:33:07;7;4;3.4
55857;PMS7003;41779;52.360;31.026;2022-09-01T21:38:53;5.6;4.4;3.4
55857;PMS7003;41779;52.360;31.026;2022-09-01T21:43:51;4.8;4;3.5
55857;PMS7003;41779;52.360;31.026;2022-09-01T21:48:29;4.6;4;3.4
55857;PMS7003;41779;52.360;31.026;2022-09-01T21:53:51;5;3.6;2.8
55857;PMS7003;41779;52.360;31.026;2022-09-01T21:58:27;5;4.2;3.4
55857;PMS7003;41779;52.360;31.026;2022-09-01T22:03:31;5.4;3.8;3.2
55857;PMS7003;41779;52.360;31.026;2022-09-01T22:08:17;6.4;3.4;2.4
55857;PMS7003;41779;52.360;31.026;2022-09-01T22:13:39;6.4;3.4;2.4
